East Lake, Colorado
Current Conditions -  °F | °C
As of 5:55 PM on Tuesday 21 Oct 2014 (Local Time) from KEIK Reporting Station
Broken Clouds Broken Clouds  
Wind Chill: 67°   Ceiling: 11000
Heat Index: 67°   Visibility: 10mi
Dew Point: 39°   Wind: 0mph
Humidity: 36%   Direction: NA
Pressure: 29.89"   Gusts: NA
Location:  39.929°N, 104.953°W
Report Text: KEIK 212355Z AUTO 00000KT 10SM BKN110 20/04 A2989 RMK AO2 LTG DSNT SW T01950040 10252 20195
Loading
Personal Weather Stations






























Interactive Weather Map
Tropical Storm Tracking
New forecast layout! Learn more

10-Day Weather Forecast

Advertisements
Track Severe Weather on mobile